sensor_id;sensor_type;location;lat;lon;timestamp;noise_LAeq;noise_LA_min;noise_LA_max;noise_LA01;noise_LA95
63692;Laerm;49838;51.798;10.954;2023-05-23T00:00:18;31.89;29.07;53.29;;
63692;Laerm;49838;51.798;10.954;2023-05-23T00:02:45;31.40;28.93;37.54;;
63692;Laerm;49838;51.798;10.954;2023-05-23T00:05:13;31.41;28.51;36.50;;
63692;Laerm;49838;51.798;10.954;2023-05-23T00:07:44;32.17;28.48;52.92;;
63692;Laerm;49838;51.798;10.954;2023-05-23T00:10:12;31.76;29.29;36.89;;
63692;Laerm;49838;51.798;10.954;2023-05-23T00:12:39;33.78;28.36;51.30;;
63692;Laerm;49838;51.798;10.954;2023-05-23T00:15:08;31.42;29.07;36.71;;
63692;Laerm;49838;51.798;10.954;2023-05-23T00:17:35;31.64;28.69;43.84;;
63692;Laerm;49838;51.798;10.954;2023-05-23T00:20:05;33.14;29.11;50.04;;
63692;Laerm;49838;51.798;10.954;2023-05-23T00:22:34;31.55;29.23;41.64;;
63692;Laerm;49838;51.798;10.954;2023-05-23T00:25:07;33.21;29.34;51.15;;
63692;Laerm;49838;51.798;10.954;2023-05-23T00:27:34;33.18;29.03;41.05;;
63692;Laerm;49838;51.798;10.954;2023-05-23T00:30:02;32.60;29.54;40.31;;
63692;Laerm;49838;51.798;10.954;2023-05-23T00:32:30;31.81;28.86;37.80;;
63692;Laerm;49838;51.798;10.954;2023-05-23T00:34:57;31.82;29.72;39.43;;
63692;Laerm;49838;51.798;10.954;2023-05-23T00:37:24;33.53;29.53;42.50;;
63692;Laerm;49838;51.798;10.954;2023-05-23T00:39:53;31.96;29.21;42.35;;
63692;Laerm;49838;51.798;10.954;2023-05-23T00:42:21;32.41;29.05;42.41;;
63692;Laerm;49838;51.798;10.954;2023-05-23T00:44:49;31.01;28.32;40.43;;
63692;Laerm;49838;51.798;10.954;2023-05-23T00:47:16;32.11;29.38;36.19;;
63692;Laerm;49838;51.798;10.954;2023-05-23T00:49:44;31.11;27.69;39.73;;
63692;Laerm;49838;51.798;10.954;2023-05-23T00:52:11;29.83;27.18;36.77;;
63692;Laerm;49838;51.798;10.954;2023-05-23T00:54:38;29.51;27.49;32.77;;
63692;Laerm;49838;51.798;10.954;2023-05-23T00:57:06;30.83;28.06;40.92;;
63692;Laerm;49838;51.798;10.954;2023-05-23T00:59:35;29.08;27.21;34.20;;
63692;Laerm;49838;51.798;10.954;2023-05-23T01:02:04;29.85;27.28;37.22;;
63692;Laerm;49838;51.798;10.954;2023-05-23T01:04:31;29.68;27.28;38.31;;
63692;Laerm;49838;51.798;10.954;2023-05-23T01:06:59;29.72;27.88;37.52;;
63692;Laerm;49838;51.798;10.954;2023-05-23T01:09:27;29.82;27.57;41.71;;
63692;Laerm;49838;51.798;10.954;2023-05-23T01:12:03;29.70;27.07;35.95;;
63692;Laerm;49838;51.798;10.954;2023-05-23T01:14:41;28.74;26.87;35.97;;
63692;Laerm;49838;51.798;10.954;2023-05-23T01:17:15;30.13;27.37;41.39;;
63692;Laerm;49838;51.798;10.954;2023-05-23T01:19:53;31.69;28.14;40.44;;
63692;Laerm;49838;51.798;10.954;2023-05-23T01:22:32;30.24;27.23;42.64;;
63692;Laerm;49838;51.798;10.954;2023-05-23T01:25:10;30.76;27.96;39.68;;
63692;Laerm;49838;51.798;10.954;2023-05-23T01:27:50;39.11;30.68;46.60;;
63692;Laerm;49838;51.798;10.954;2023-05-23T01:30:20;38.88;33.15;45.29;;
63692;Laerm;49838;51.798;10.954;2023-05-23T01:32:47;36.59;30.29;48.85;;
63692;Laerm;49838;51.798;10.954;2023-05-23T01:35:23;33.36;29.06;44.93;;
63692;Laerm;49838;51.798;10.954;2023-05-23T01:37:51;38.88;27.66;59.63;;
63692;Laerm;49838;51.798;10.954;2023-05-23T01:40:19;46.49;27.87;65.21;;
63692;Laerm;49838;51.798;10.954;2023-05-23T01:42:48;31.57;27.65;43.60;;
63692;Laerm;49838;51.798;10.954;2023-05-23T01:45:16;32.32;28.32;46.21;;
63692;Laerm;49838;51.798;10.954;2023-05-23T01:47:44;46.64;28.76;62.52;;
63692;Laerm;49838;51.798;10.954;2023-05-23T01:50:13;33.57;29.23;43.72;;
63692;Laerm;49838;51.798;10.954;2023-05-23T01:52:40;34.06;29.19;45.81;;
63692;Laerm;49838;51.798;10.954;2023-05-23T01:55:08;35.27;30.71;53.83;;
63692;Laerm;49838;51.798;10.954;2023-05-23T01:57:37;34.46;28.09;56.28;;
63692;Laerm;49838;51.798;10.954;2023-05-23T02:00:06;54.99;31.51;75.68;;
63692;Laerm;49838;51.798;10.954;2023-05-23T02:02:37;35.13;28.91;45.97;;
63692;Laerm;49838;51.798;10.954;2023-05-23T02:05:05;34.92;28.42;44.64;;
63692;Laerm;49838;51.798;10.954;2023-05-23T02:07:32;36.37;30.46;47.20;;
63692;Laerm;49838;51.798;10.954;2023-05-23T02:09:59;36.25;30.34;44.62;;
63692;Laerm;49838;51.798;10.954;2023-05-23T02:12:27;36.66;30.18;46.22;;
63692;Laerm;49838;51.798;10.954;2023-05-23T02:14:54;37.76;30.38;50.27;;
63692;Laerm;49838;51.798;10.954;2023-05-23T02:17:23;38.79;30.96;49.45;;
63692;Laerm;49838;51.798;10.954;2023-05-23T02:19:50;54.50;32.64;74.32;;
63692;Laerm;49838;51.798;10.954;2023-05-23T02:22:21;46.06;31.72;60.27;;
63692;Laerm;49838;51.798;10.954;2023-05-23T02:24:49;46.75;32.30;61.94;;
63692;Laerm;49838;51.798;10.954;2023-05-23T02:27:17;53.84;32.83;70.66;;
63692;Laerm;49838;51.798;10.954;2023-05-23T02:29:44;48.59;33.14;61.84;;
63692;Laerm;49838;51.798;10.954;2023-05-23T02:32:11;46.88;33.76;60.08;;
63692;Laerm;49838;51.798;10.954;2023-05-23T02:34:40;51.94;33.40;68.84;;
63692;Laerm;49838;51.798;10.954;2023-05-23T02:37:07;48.13;34.97;60.03;;
63692;Laerm;49838;51.798;10.954;2023-05-23T02:39:35;51.11;35.33;62.74;;
63692;Laerm;49838;51.798;10.954;2023-05-23T02:42:02;51.10;34.48;63.84;;
63692;Laerm;49838;51.798;10.954;2023-05-23T02:44:29;47.80;35.13;59.05;;
63692;Laerm;49838;51.798;10.954;2023-05-23T02:46:57;48.58;35.15;61.97;;
63692;Laerm;49838;51.798;10.954;2023-05-23T02:49:24;47.50;34.41;59.54;;
63692;Laerm;49838;51.798;10.954;2023-05-23T02:51:53;47.99;35.17;61.37;;
63692;Laerm;49838;51.798;10.954;2023-05-23T02:54:20;48.34;34.71;62.13;;
63692;Laerm;49838;51.798;10.954;2023-05-23T02:56:47;56.68;34.27;75.02;;
63692;Laerm;49838;51.798;10.954;2023-05-23T02:59:15;46.17;33.84;60.89;;
63692;Laerm;49838;51.798;10.954;2023-05-23T03:01:43;43.84;33.22;58.52;;
63692;Laerm;49838;51.798;10.954;2023-05-23T03:04:10;43.04;36.12;51.09;;
63692;Laerm;49838;51.798;10.954;2023-05-23T03:06:38;41.98;35.97;57.11;;
63692;Laerm;49838;51.798;10.954;2023-05-23T03:09:08;50.69;35.96;68.28;;
63692;Laerm;49838;51.798;10.954;2023-05-23T03:11:36;55.00;35.77;75.42;;
63692;Laerm;49838;51.798;10.954;2023-05-23T03:14:03;56.71;35.62;74.74;;
63692;Laerm;49838;51.798;10.954;2023-05-23T03:16:30;44.62;36.76;55.56;;
63692;Laerm;49838;51.798;10.954;2023-05-23T03:18:57;43.91;34.89;55.93;;
63692;Laerm;49838;51.798;10.954;2023-05-23T03:21:25;44.81;36.56;59.59;;
63692;Laerm;49838;51.798;10.954;2023-05-23T03:23:52;57.97;36.26;74.86;;
63692;Laerm;49838;51.798;10.954;2023-05-23T03:26:21;46.70;37.63;59.06;;
63692;Laerm;49838;51.798;10.954;2023-05-23T03:28:49;54.37;37.66;71.77;;
63692;Laerm;49838;51.798;10.954;2023-05-23T03:31:16;42.31;36.48;51.12;;
63692;Laerm;49838;51.798;10.954;2023-05-23T03:33:43;42.27;36.33;54.36;;
63692;Laerm;49838;51.798;10.954;2023-05-23T03:36:10;47.56;36.38;64.38;;
63692;Laerm;49838;51.798;10.954;2023-05-23T03:38:38;54.36;35.30;70.34;;
63692;Laerm;49838;51.798;10.954;2023-05-23T03:41:05;43.78;36.68;54.46;;
63692;Laerm;49838;51.798;10.954;2023-05-23T03:43:34;53.08;38.14;69.97;;
63692;Laerm;49838;51.798;10.954;2023-05-23T03:46:01;48.16;35.82;62.06;;
63692;Laerm;49838;51.798;10.954;2023-05-23T03:48:28;48.75;36.26;66.05;;
63692;Laerm;49838;51.798;10.954;2023-05-23T03:50:56;52.57;37.50;73.38;;
63692;Laerm;49838;51.798;10.954;2023-05-23T03:53:23;54.09;35.82;69.99;;
63692;Laerm;49838;51.798;10.954;2023-05-23T03:55:50;58.95;36.71;77.71;;
63692;Laerm;49838;51.798;10.954;2023-05-23T03:58:19;54.20;37.28;74.08;;
63692;Laerm;49838;51.798;10.954;2023-05-23T04:00:47;53.24;36.49;74.21;;
63692;Laerm;49838;51.798;10.954;2023-05-23T04:03:15;53.27;36.86;72.34;;
63692;Laerm;49838;51.798;10.954;2023-05-23T04:05:42;57.80;38.66;72.60;;
63692;Laerm;49838;51.798;10.954;2023-05-23T04:08:09;46.06;38.47;68.20;;
63692;Laerm;49838;51.798;10.954;2023-05-23T04:10:38;53.97;38.37;68.78;;
63692;Laerm;49838;51.798;10.954;2023-05-23T04:13:05;48.75;39.44;65.52;;
63692;Laerm;49838;51.798;10.954;2023-05-23T04:15:32;43.06;37.89;59.62;;
63692;Laerm;49838;51.798;10.954;2023-05-23T04:18:01;45.91;39.23;60.75;;
63692;Laerm;49838;51.798;10.954;2023-05-23T04:20:29;50.51;38.19;67.08;;
63692;Laerm;49838;51.798;10.954;2023-05-23T04:22:56;56.06;40.50;72.34;;
63692;Laerm;49838;51.798;10.954;2023-05-23T04:25:24;57.30;40.89;76.06;;
63692;Laerm;49838;51.798;10.954;2023-05-23T04:27:51;51.71;41.28;66.20;;
63692;Laerm;49838;51.798;10.954;2023-05-23T04:30:19;56.50;41.84;75.02;;
63692;Laerm;49838;51.798;10.954;2023-05-23T04:32:47;54.50;39.66;70.63;;
63692;Laerm;49838;51.798;10.954;2023-05-23T04:35:15;54.89;40.78;70.60;;
63692;Laerm;49838;51.798;10.954;2023-05-23T04:37:45;62.76;40.38;90.10;;
63692;Laerm;49838;51.798;10.954;2023-05-23T04:40:12;54.69;41.00;73.59;;
63692;Laerm;49838;51.798;10.954;2023-05-23T04:42:41;60.40;40.55;77.67;;
63692;Laerm;49838;51.798;10.954;2023-05-23T04:45:10;54.72;42.51;68.15;;
63692;Laerm;49838;51.798;10.954;2023-05-23T04:47:37;59.56;43.12;73.85;;
63692;Laerm;49838;51.798;10.954;2023-05-23T04:50:05;51.12;40.66;66.93;;
63692;Laerm;49838;51.798;10.954;2023-05-23T04:52:34;57.50;40.34;73.65;;
63692;Laerm;49838;51.798;10.954;2023-05-23T04:55:02;55.71;40.79;73.71;;
63692;Laerm;49838;51.798;10.954;2023-05-23T04:57:29;58.24;43.04;72.90;;
63692;Laerm;49838;51.798;10.954;2023-05-23T04:59:57;59.70;43.84;71.94;;
63692;Laerm;49838;51.798;10.954;2023-05-23T05:02:26;59.64;41.02;76.16;;
63692;Laerm;49838;51.798;10.954;2023-05-23T05:04:53;56.37;41.40;69.32;;
63692;Laerm;49838;51.798;10.954;2023-05-23T05:07:20;53.86;37.67;72.53;;
63692;Laerm;49838;51.798;10.954;2023-05-23T05:09:49;56.43;37.86;71.15;;
63692;Laerm;49838;51.798;10.954;2023-05-23T05:12:16;58.62;40.93;75.96;;
63692;Laerm;49838;51.798;10.954;2023-05-23T05:14:43;59.87;40.05;75.52;;
63692;Laerm;49838;51.798;10.954;2023-05-23T05:17:11;56.58;38.27;73.28;;
63692;Laerm;49838;51.798;10.954;2023-05-23T05:19:38;45.79;38.02;57.68;;
63692;Laerm;49838;51.798;10.954;2023-05-23T05:22:06;65.04;42.30;83.40;;
63692;Laerm;49838;51.798;10.954;2023-05-23T05:24:34;59.51;37.71;71.44;;
63692;Laerm;49838;51.798;10.954;2023-05-23T05:27:03;59.44;39.02;72.58;;
63692;Laerm;49838;51.798;10.954;2023-05-23T05:29:31;59.84;38.25;77.58;;
63692;Laerm;49838;51.798;10.954;2023-05-23T05:31:58;62.65;42.06;73.99;;
63692;Laerm;49838;51.798;10.954;2023-05-23T05:34:26;61.12;40.02;76.49;;
63692;Laerm;49838;51.798;10.954;2023-05-23T05:36:54;62.68;38.22;82.01;;
63692;Laerm;49838;51.798;10.954;2023-05-23T05:39:23;60.56;38.56;75.71;;
63692;Laerm;49838;51.798;10.954;2023-05-23T05:41:51;58.56;38.88;73.03;;
63692;Laerm;49838;51.798;10.954;2023-05-23T05:44:20;59.76;37.80;73.05;;
63692;Laerm;49838;51.798;10.954;2023-05-23T05:46:50;52.72;38.62;70.05;;
63692;Laerm;49838;51.798;10.954;2023-05-23T05:49:17;55.86;38.57;68.97;;
63692;Laerm;49838;51.798;10.954;2023-05-23T05:51:44;59.35;38.91;77.87;;
63692;Laerm;49838;51.798;10.954;2023-05-23T05:54:11;61.13;39.58;73.91;;
63692;Laerm;49838;51.798;10.954;2023-05-23T05:56:39;55.95;37.99;75.45;;
63692;Laerm;49838;51.798;10.954;2023-05-23T05:59:07;53.94;37.25;70.51;;
63692;Laerm;49838;51.798;10.954;2023-05-23T06:01:35;60.73;41.48;73.96;;
63692;Laerm;49838;51.798;10.954;2023-05-23T06:04:03;59.27;42.29;72.45;;
63692;Laerm;49838;51.798;10.954;2023-05-23T06:06:32;59.54;36.89;72.23;;
63692;Laerm;49838;51.798;10.954;2023-05-23T06:09:00;57.76;38.43;74.52;;
63692;Laerm;49838;51.798;10.954;2023-05-23T06:11:27;57.85;37.76;72.28;;
63692;Laerm;49838;51.798;10.954;2023-05-23T06:13:54;60.47;37.21;75.85;;
63692;Laerm;49838;51.798;10.954;2023-05-23T06:16:21;55.78;35.55;71.68;;
63692;Laerm;49838;51.798;10.954;2023-05-23T06:18:50;56.91;34.79;69.87;;
63692;Laerm;49838;51.798;10.954;2023-05-23T06:21:18;55.81;38.18;73.63;;
63692;Laerm;49838;51.798;10.954;2023-05-23T06:23:45;56.50;35.68;74.34;;
63692;Laerm;49838;51.798;10.954;2023-05-23T06:26:13;56.27;36.07;71.11;;
63692;Laerm;49838;51.798;10.954;2023-05-23T06:28:40;50.99;35.17;69.33;;
63692;Laerm;49838;51.798;10.954;2023-05-23T06:31:08;56.08;36.02;73.25;;
63692;Laerm;49838;51.798;10.954;2023-05-23T06:33:36;49.48;34.79;65.60;;
63692;Laerm;49838;51.798;10.954;2023-05-23T06:36:05;62.03;36.93;79.58;;
63692;Laerm;49838;51.798;10.954;2023-05-23T06:38:32;56.89;37.24;70.22;;
63692;Laerm;49838;51.798;10.954;2023-05-23T06:40:59;54.38;35.90;68.54;;
63692;Laerm;49838;51.798;10.954;2023-05-23T06:43:27;59.49;39.52;74.04;;
63692;Laerm;49838;51.798;10.954;2023-05-23T06:45:54;57.18;37.16;70.40;;
63692;Laerm;49838;51.798;10.954;2023-05-23T06:48:22;59.68;36.42;74.09;;
63692;Laerm;49838;51.798;10.954;2023-05-23T06:50:50;60.55;37.29;76.89;;
63692;Laerm;49838;51.798;10.954;2023-05-23T06:53:18;56.21;37.37;69.10;;
63692;Laerm;49838;51.798;10.954;2023-05-23T06:55:45;57.07;35.11;72.31;;
63692;Laerm;49838;51.798;10.954;2023-05-23T06:58:13;55.67;36.69;72.60;;
63692;Laerm;49838;51.798;10.954;2023-05-23T07:00:40;55.11;35.67;70.32;;
63692;Laerm;49838;51.798;10.954;2023-05-23T07:03:08;55.07;36.99;70.63;;
63692;Laerm;49838;51.798;10.954;2023-05-23T07:05:36;52.88;37.56;66.55;;
63692;Laerm;49838;51.798;10.954;2023-05-23T07:08:03;56.16;38.39;69.56;;
63692;Laerm;49838;51.798;10.954;2023-05-23T07:10:32;53.09;36.75;69.87;;
63692;Laerm;49838;51.798;10.954;2023-05-23T07:13:00;62.98;36.93;80.48;;
63692;Laerm;49838;51.798;10.954;2023-05-23T07:15:27;62.53;41.06;79.94;;
63692;Laerm;49838;51.798;10.954;2023-05-23T07:17:55;58.10;39.67;73.07;;
63692;Laerm;49838;51.798;10.954;2023-05-23T07:20:22;62.36;41.16;77.24;;
63692;Laerm;49838;51.798;10.954;2023-05-23T07:22:49;63.81;43.72;80.03;;
63692;Laerm;49838;51.798;10.954;2023-05-23T07:25:17;56.36;41.05;72.90;;
63692;Laerm;49838;51.798;10.954;2023-05-23T07:27:46;62.17;39.01;81.37;;
63692;Laerm;49838;51.798;10.954;2023-05-23T07:30:14;56.21;41.29;71.90;;
63692;Laerm;49838;51.798;10.954;2023-05-23T07:32:41;54.04;40.46;69.00;;
63692;Laerm;49838;51.798;10.954;2023-05-23T07:35:09;57.55;40.21;75.67;;
63692;Laerm;49838;51.798;10.954;2023-05-23T07:37:36;49.35;40.45;77.11;;
63692;Laerm;49838;51.798;10.954;2023-05-23T07:40:04;59.54;40.83;74.83;;
63692;Laerm;49838;51.798;10.954;2023-05-23T07:42:32;54.58;43.96;71.07;;
63692;Laerm;49838;51.798;10.954;2023-05-23T07:45:01;56.49;41.52;71.94;;
63692;Laerm;49838;51.798;10.954;2023-05-23T07:47:28;60.61;39.23;77.92;;
63692;Laerm;49838;51.798;10.954;2023-05-23T07:49:55;59.70;40.73;72.77;;
63692;Laerm;49838;51.798;10.954;2023-05-23T07:52:28;64.86;39.99;83.75;;
63692;Laerm;49838;51.798;10.954;2023-05-23T07:54:55;58.69;39.27;71.54;;
63692;Laerm;49838;51.798;10.954;2023-05-23T07:57:23;62.38;39.88;80.95;;
63692;Laerm;49838;51.798;10.954;2023-05-23T07:59:51;56.80;38.70;73.26;;
63692;Laerm;49838;51.798;10.954;2023-05-23T08:02:21;56.60;41.51;70.87;;
63692;Laerm;49838;51.798;10.954;2023-05-23T08:04:48;53.72;40.59;68.47;;
63692;Laerm;49838;51.798;10.954;2023-05-23T08:07:16;58.38;40.85;71.95;;
63692;Laerm;49838;51.798;10.954;2023-05-23T08:09:44;57.06;40.48;72.68;;
63692;Laerm;49838;51.798;10.954;2023-05-23T08:12:11;59.58;43.52;72.30;;
63692;Laerm;49838;51.798;10.954;2023-05-23T08:14:39;59.07;41.45;75.24;;
63692;Laerm;49838;51.798;10.954;2023-05-23T08:17:06;57.90;41.74;70.46;;
63692;Laerm;49838;51.798;10.954;2023-05-23T08:19:35;55.61;43.46;72.81;;
63692;Laerm;49838;51.798;10.954;2023-05-23T08:22:02;58.01;44.65;71.05;;
63692;Laerm;49838;51.798;10.954;2023-05-23T08:24:30;54.84;41.44;67.93;;
63692;Laerm;49838;51.798;10.954;2023-05-23T08:26:59;63.63;40.41;80.94;;
63692;Laerm;49838;51.798;10.954;2023-05-23T08:29:26;55.43;39.88;68.79;;
63692;Laerm;49838;51.798;10.954;2023-05-23T08:31:54;61.10;39.10;78.14;;
63692;Laerm;49838;51.798;10.954;2023-05-23T08:34:21;60.63;46.28;71.73;;
63692;Laerm;49838;51.798;10.954;2023-05-23T08:37:03;63.40;42.45;85.53;;
63692;Laerm;49838;51.798;10.954;2023-05-23T08:39:30;55.55;41.80;74.64;;
63692;Laerm;49838;51.798;10.954;2023-05-23T08:41:57;56.00;41.87;69.22;;
63692;Laerm;49838;51.798;10.954;2023-05-23T08:44:25;59.36;41.00;74.64;;
63692;Laerm;49838;51.798;10.954;2023-05-23T08:46:54;56.99;39.52;71.48;;
63692;Laerm;49838;51.798;10.954;2023-05-23T08:49:24;54.00;37.90;70.01;;
63692;Laerm;49838;51.798;10.954;2023-05-23T08:51:56;59.20;39.97;74.40;;
63692;Laerm;49838;51.798;10.954;2023-05-23T08:54:27;52.25;39.06;68.63;;
63692;Laerm;49838;51.798;10.954;2023-05-23T08:56:55;59.22;39.97;72.35;;
63692;Laerm;49838;51.798;10.954;2023-05-23T08:59:24;54.89;39.07;71.01;;
63692;Laerm;49838;51.798;10.954;2023-05-23T09:01:54;61.10;39.85;73.02;;
63692;Laerm;49838;51.798;10.954;2023-05-23T09:04:22;54.73;40.82;69.96;;
63692;Laerm;49838;51.798;10.954;2023-05-23T09:06:50;55.28;38.63;69.35;;
63692;Laerm;49838;51.798;10.954;2023-05-23T09:09:18;60.17;40.14;75.03;;
63692;Laerm;49838;51.798;10.954;2023-05-23T09:11:46;59.00;38.27;80.27;;
63692;Laerm;49838;51.798;10.954;2023-05-23T09:14:13;56.25;39.62;68.05;;
63692;Laerm;49838;51.798;10.954;2023-05-23T09:16:45;55.85;40.93;73.29;;
63692;Laerm;49838;51.798;10.954;2023-05-23T09:19:13;55.05;40.49;69.87;;
63692;Laerm;49838;51.798;10.954;2023-05-23T09:21:42;52.37;41.32;69.15;;
63692;Laerm;49838;51.798;10.954;2023-05-23T09:24:09;61.15;41.47;76.87;;
63692;Laerm;49838;51.798;10.954;2023-05-23T09:26:38;59.30;41.10;72.56;;
63692;Laerm;49838;51.798;10.954;2023-05-23T09:29:05;60.92;42.91;73.06;;
63692;Laerm;49838;51.798;10.954;2023-05-23T09:31:33;55.17;41.82;73.53;;
63692;Laerm;49838;51.798;10.954;2023-05-23T09:34:01;61.26;45.07;82.11;;
63692;Laerm;49838;51.798;10.954;2023-05-23T09:36:29;59.99;42.54;76.12;;
63692;Laerm;49838;51.798;10.954;2023-05-23T09:39:01;58.54;44.21;78.28;;
63692;Laerm;49838;51.798;10.954;2023-05-23T09:41:29;54.79;43.53;68.23;;
63692;Laerm;49838;51.798;10.954;2023-05-23T09:44:04;54.59;42.63;66.25;;
63692;Laerm;49838;51.798;10.954;2023-05-23T09:46:34;59.89;42.57;74.77;;
63692;Laerm;49838;51.798;10.954;2023-05-23T09:49:01;59.60;40.34;73.95;;
63692;Laerm;49838;51.798;10.954;2023-05-23T09:51:29;59.44;42.99;77.88;;
63692;Laerm;49838;51.798;10.954;2023-05-23T09:53:56;58.95;39.86;71.28;;
63692;Laerm;49838;51.798;10.954;2023-05-23T09:56:25;58.24;41.21;71.31;;
63692;Laerm;49838;51.798;10.954;2023-05-23T09:58:53;50.78;39.33;66.37;;
63692;Laerm;49838;51.798;10.954;2023-05-23T10:01:24;60.50;43.16;74.37;;
63692;Laerm;49838;51.798;10.954;2023-05-23T10:03:53;59.95;39.86;73.07;;
63692;Laerm;49838;51.798;10.954;2023-05-23T10:06:30;56.74;39.33;73.85;;
63692;Laerm;49838;51.798;10.954;2023-05-23T10:09:03;52.22;42.11;66.17;;
63692;Laerm;49838;51.798;10.954;2023-05-23T10:12:02;58.84;40.61;75.56;;
63692;Laerm;49838;51.798;10.954;2023-05-23T10:14:48;56.16;41.02;72.05;;
63692;Laerm;49838;51.798;10.954;2023-05-23T10:17:26;60.52;40.70;73.82;;
63692;Laerm;49838;51.798;10.954;2023-05-23T10:19:59;61.20;40.82;75.91;;
63692;Laerm;49838;51.798;10.954;2023-05-23T10:22:35;60.33;42.86;73.69;;
63692;Laerm;49838;51.798;10.954;2023-05-23T10:25:05;59.86;44.73;72.66;;
63692;Laerm;49838;51.798;10.954;2023-05-23T10:27:33;63.12;46.77;77.94;;
63692;Laerm;49838;51.798;10.954;2023-05-23T10:30:01;59.91;42.61;74.99;;
63692;Laerm;49838;51.798;10.954;2023-05-23T10:32:30;57.27;42.33;73.09;;
63692;Laerm;49838;51.798;10.954;2023-05-23T10:35:07;61.20;42.06;77.36;;
63692;Laerm;49838;51.798;10.954;2023-05-23T10:37:41;48.37;41.20;64.79;;
63692;Laerm;49838;51.798;10.954;2023-05-23T10:40:16;61.41;40.72;86.53;;
63692;Laerm;49838;51.798;10.954;2023-05-23T10:42:53;62.72;42.71;75.68;;
63692;Laerm;49838;51.798;10.954;2023-05-23T10:45:22;60.32;43.07;74.24;;
63692;Laerm;49838;51.798;10.954;2023-05-23T10:47:52;61.58;45.89;74.42;;
63692;Laerm;49838;51.798;10.954;2023-05-23T10:50:33;51.86;42.30;73.10;;
63692;Laerm;49838;51.798;10.954;2023-05-23T10:53:02;59.26;41.93;76.12;;
63692;Laerm;49838;51.798;10.954;2023-05-23T10:55:31;59.07;42.44;75.74;;
63692;Laerm;49838;51.798;10.954;2023-05-23T10:58:08;57.44;41.07;73.83;;
63692;Laerm;49838;51.798;10.954;2023-05-23T11:00:36;62.82;45.13;73.82;;
63692;Laerm;49838;51.798;10.954;2023-05-23T11:03:07;60.19;42.76;77.04;;
63692;Laerm;49838;51.798;10.954;2023-05-23T11:05:36;59.39;42.63;72.99;;
63692;Laerm;49838;51.798;10.954;2023-05-23T11:08:09;55.44;42.66;73.75;;
63692;Laerm;49838;51.798;10.954;2023-05-23T11:10:57;61.08;43.61;74.61;;
63692;Laerm;49838;51.798;10.954;2023-05-23T11:16:25;57.56;42.74;74.31;;
63692;Laerm;49838;51.798;10.954;2023-05-23T11:19:22;63.09;42.50;81.93;;
63692;Laerm;49838;51.798;10.954;2023-05-23T11:22:00;59.20;40.78;79.00;;
63692;Laerm;49838;51.798;10.954;2023-05-23T11:24:55;56.84;41.74;71.57;;
63692;Laerm;49838;51.798;10.954;2023-05-23T11:27:27;59.43;41.11;74.86;;
63692;Laerm;49838;51.798;10.954;2023-05-23T11:29:59;62.31;43.14;78.55;;
63692;Laerm;49838;51.798;10.954;2023-05-23T11:32:30;62.17;42.15;81.72;;
63692;Laerm;49838;51.798;10.954;2023-05-23T11:35:00;63.77;44.18;80.34;;
63692;Laerm;49838;51.798;10.954;2023-05-23T11:37:28;63.77;45.46;77.40;;
63692;Laerm;49838;51.798;10.954;2023-05-23T11:39:56;64.94;42.57;82.69;;
63692;Laerm;49838;51.798;10.954;2023-05-23T11:42:24;57.17;42.25;74.29;;
63692;Laerm;49838;51.798;10.954;2023-05-23T11:44:52;61.75;43.71;75.60;;
63692;Laerm;49838;51.798;10.954;2023-05-23T11:47:19;60.52;41.71;77.23;;
63692;Laerm;49838;51.798;10.954;2023-05-23T11:49:46;62.58;43.41;79.62;;
63692;Laerm;49838;51.798;10.954;2023-05-23T11:52:15;61.96;47.06;74.96;;
63692;Laerm;49838;51.798;10.954;2023-05-23T11:54:43;63.59;44.96;79.07;;
63692;Laerm;49838;51.798;10.954;2023-05-23T11:57:12;56.67;42.96;72.86;;
63692;Laerm;49838;51.798;10.954;2023-05-23T11:59:39;61.71;43.52;77.80;;
63692;Laerm;49838;51.798;10.954;2023-05-23T12:02:07;60.37;43.47;78.07;;
63692;Laerm;49838;51.798;10.954;2023-05-23T12:04:34;59.05;42.14;73.01;;
63692;Laerm;49838;51.798;10.954;2023-05-23T12:07:05;63.51;44.37;76.78;;
63692;Laerm;49838;51.798;10.954;2023-05-23T12:09:42;60.38;43.04;73.52;;
63692;Laerm;49838;51.798;10.954;2023-05-23T12:12:09;60.83;45.77;77.12;;
63692;Laerm;49838;51.798;10.954;2023-05-23T12:14:38;61.94;43.49;77.65;;
63692;Laerm;49838;51.798;10.954;2023-05-23T12:17:10;61.57;44.40;75.60;;
63692;Laerm;49838;51.798;10.954;2023-05-23T12:19:38;59.10;41.74;76.44;;
63692;Laerm;49838;51.798;10.954;2023-05-23T12:22:06;58.51;43.09;76.50;;
63692;Laerm;49838;51.798;10.954;2023-05-23T12:24:33;64.28;44.30;80.18;;
63692;Laerm;49838;51.798;10.954;2023-05-23T12:27:06;60.63;43.54;77.80;;
63692;Laerm;49838;51.798;10.954;2023-05-23T12:29:35;58.54;42.97;72.15;;
63692;Laerm;49838;51.798;10.954;2023-05-23T12:32:06;60.52;45.10;77.45;;
63692;Laerm;49838;51.798;10.954;2023-05-23T12:34:33;62.55;45.24;80.52;;
63692;Laerm;49838;51.798;10.954;2023-05-23T12:37:00;63.48;44.53;78.61;;
63692;Laerm;49838;51.798;10.954;2023-05-23T12:39:29;61.82;43.32;77.65;;
63692;Laerm;49838;51.798;10.954;2023-05-23T12:42:07;59.63;43.57;72.14;;
63692;Laerm;49838;51.798;10.954;2023-05-23T12:44:35;63.12;47.71;79.36;;
63692;Laerm;49838;51.798;10.954;2023-05-23T12:47:03;61.52;45.23;74.65;;
63692;Laerm;49838;51.798;10.954;2023-05-23T12:49:30;62.27;45.88;76.29;;
63692;Laerm;49838;51.798;10.954;2023-05-23T12:51:57;62.94;48.41;75.77;;
63692;Laerm;49838;51.798;10.954;2023-05-23T12:54:25;60.62;46.58;75.82;;
63692;Laerm;49838;51.798;10.954;2023-05-23T12:56:52;56.19;46.05;71.06;;
63692;Laerm;49838;51.798;10.954;2023-05-23T12:59:21;63.60;45.76;76.04;;
63692;Laerm;49838;51.798;10.954;2023-05-23T13:01:51;61.50;46.76;71.86;;
63692;Laerm;49838;51.798;10.954;2023-05-23T13:04:19;57.00;45.46;71.90;;
63692;Laerm;49838;51.798;10.954;2023-05-23T13:06:48;56.97;46.43;70.32;;
63692;Laerm;49838;51.798;10.954;2023-05-23T13:09:16;59.46;44.66;72.22;;
63692;Laerm;49838;51.798;10.954;2023-05-23T13:11:43;57.37;47.27;74.66;;
63692;Laerm;49838;51.798;10.954;2023-05-23T13:14:11;60.44;47.95;71.45;;
63692;Laerm;49838;51.798;10.954;2023-05-23T13:16:40;59.22;48.16;72.23;;
63692;Laerm;49838;51.798;10.954;2023-05-23T13:19:08;65.42;50.17;84.27;;
63692;Laerm;49838;51.798;10.954;2023-05-23T13:21:36;62.38;48.29;74.77;;
63692;Laerm;49838;51.798;10.954;2023-05-23T13:24:03;63.82;46.29;78.18;;
63692;Laerm;49838;51.798;10.954;2023-05-23T13:26:31;60.54;44.87;74.28;;
63692;Laerm;49838;51.798;10.954;2023-05-23T13:28:58;56.18;44.61;73.47;;
63692;Laerm;49838;51.798;10.954;2023-05-23T13:33:54;61.99;45.48;77.70;;
63692;Laerm;49838;51.798;10.954;2023-05-23T13:36:22;61.72;47.52;83.47;;
63692;Laerm;49838;51.798;10.954;2023-05-23T13:38:50;60.03;46.28;84.73;;
63692;Laerm;49838;51.798;10.954;2023-05-23T13:41:18;59.07;47.01;70.60;;
63692;Laerm;49838;51.798;10.954;2023-05-23T13:43:45;60.94;46.31;75.00;;
63692;Laerm;49838;51.798;10.954;2023-05-23T13:46:13;61.94;45.85;73.07;;